createdAt,value
2018-10-01T00:00:27.076Z,17.6
2018-10-01T00:01:16.582Z,17.6
2018-10-01T00:02:07.244Z,17.6
2018-10-01T00:02:56.733Z,17.6
2018-10-01T00:03:46.806Z,17.6
2018-10-01T00:04:36.881Z,17.6
2018-10-01T00:05:27.263Z,17.6
2018-10-01T00:06:16.687Z,17.6
2018-10-01T00:07:06.753Z,17.6
2018-10-01T00:07:56.508Z,17.6
2018-10-01T00:08:47.251Z,17.6
2018-10-01T00:09:37.788Z,17.6
2018-10-01T00:10:27.049Z,17.6
2018-10-01T00:11:18.207Z,17.6
2018-10-01T00:12:07.685Z,17.6
2018-10-01T00:12:56.611Z,17.7
2018-10-01T00:13:47.258Z,17.6
2018-10-01T00:14:37.007Z,17.6
2018-10-01T00:15:27.453Z,17.6
2018-10-01T00:16:18.255Z,17.6
2018-10-01T00:17:08.308Z,17.6
2018-10-01T00:17:57.808Z,17.6
2018-10-01T00:18:47.895Z,17.6
2018-10-01T00:19:37.945Z,17.6
2018-10-01T00:20:28.581Z,17.6
2018-10-01T00:21:18.100Z,17.6
2018-10-01T00:22:08.938Z,17.6
2018-10-01T00:22:59.020Z,17.6
2018-10-01T00:23:48.293Z,17.6
2018-10-01T00:24:37.872Z,17.7
2018-10-01T00:25:28.433Z,17.6
2018-10-01T00:26:18.442Z,17.6
2018-10-01T00:27:08.463Z,17.6
2018-10-01T00:27:58.570Z,17.6
2018-10-01T00:28:48.665Z,17.6
2018-10-01T00:29:38.113Z,17.6
2018-10-01T00:30:28.156Z,17.6
2018-10-01T00:31:19.111Z,17.6
2018-10-01T00:32:08.921Z,17.7
2018-10-01T00:32:59.517Z,17.6
2018-10-01T00:33:49.561Z,17.6
2018-10-01T00:34:39.372Z,17.6
2018-10-01T00:35:29.370Z,17.6
2018-10-01T00:36:20.004Z,17.6
2018-10-01T00:37:09.366Z,17.6
2018-10-01T00:55:45.018Z,17.4
2018-10-01T00:56:35.707Z,17.4
2018-10-01T00:57:25.848Z,17.4
2018-10-01T00:58:15.607Z,17.4
2018-10-01T00:59:04.838Z,17.4
2018-10-01T00:59:55.432Z,17.4
2018-10-01T01:00:46.581Z,17.4
2018-10-01T01:01:35.781Z,17.4
2018-10-01T01:02:25.868Z,17.4
2018-10-01T01:03:16.197Z,17.4
2018-10-01T01:04:05.425Z,17.4
2018-10-01T01:04:56.635Z,17.4
2018-10-01T01:05:46.321Z,17.4
2018-10-01T01:06:36.437Z,17.5
2018-10-01T01:07:26.192Z,17.5
2018-10-01T01:08:15.486Z,17.5
2018-10-01T01:09:06.722Z,17.5
2018-10-01T01:09:56.957Z,17.5
2018-10-01T01:10:46.939Z,17.5
2018-10-01T01:11:36.237Z,17.5
2018-10-01T01:12:26.867Z,17.5
2018-10-01T01:13:16.658Z,17.5
2018-10-01T01:14:07.002Z,17.5
2018-10-01T01:14:55.970Z,17.5
2018-10-01T01:15:47.350Z,17.6
2018-10-01T01:16:36.392Z,17.6
2018-10-01T01:17:27.267Z,17.6
2018-10-01T01:18:17.316Z,17.6
2018-10-01T01:19:07.015Z,17.6
2018-10-01T01:19:56.419Z,17.6
2018-10-01T01:20:47.504Z,17.6
2018-10-01T01:21:38.086Z,17.6
2018-10-01T01:22:27.909Z,17.6
2018-10-01T01:23:17.354Z,17.6
2018-10-01T01:24:07.452Z,17.6
2018-10-01T01:24:58.088Z,17.6
2018-10-01T01:25:46.731Z,17.6
2018-10-01T01:26:38.438Z,17.6
2018-10-01T01:27:28.254Z,17.6
2018-10-01T01:28:17.709Z,17.6
2018-10-01T01:29:08.118Z,17.6
2018-10-01T01:29:58.466Z,17.6
2018-10-01T01:30:48.721Z,17.6
2018-10-01T01:31:38.281Z,17.6
2018-10-01T01:32:27.718Z,17.6
2018-10-01T01:33:17.798Z,17.6
2018-10-01T01:34:08.453Z,17.6
2018-10-01T01:34:58.841Z,17.6
2018-10-01T01:35:48.618Z,17.6
2018-10-01T01:36:38.068Z,17.6
2018-10-01T01:37:28.240Z,17.6
2018-10-01T01:38:18.510Z,17.6
2018-10-01T01:39:07.995Z,17.6
2018-10-01T01:39:57.206Z,17.6
2018-10-01T01:40:49.305Z,17.6
2018-10-01T01:41:38.774Z,17.6
2018-10-01T01:42:29.370Z,17.6
2018-10-01T01:43:19.128Z,17.6
2018-10-01T01:44:08.636Z,17.6
2018-10-01T01:44:58.418Z,17.6
2018-10-01T01:45:49.680Z,17.6
2018-10-01T01:46:40.225Z,17.6
2018-10-01T01:47:30.230Z,17.6
2018-10-01T01:48:19.213Z,17.6
2018-10-01T01:49:10.110Z,17.6
2018-10-01T01:50:00.154Z,17.6
2018-10-01T01:50:50.004Z,17.6
2018-10-01T01:51:39.195Z,17.6
2018-10-01T01:52:29.772Z,17.6
2018-10-01T01:53:19.609Z,17.6
2018-10-01T01:54:10.462Z,17.6
2018-10-01T01:54:59.120Z,17.6
2018-10-01T01:55:49.480Z,17.6
2018-10-01T01:56:40.377Z,17.6
2018-10-01T01:57:29.904Z,17.6
2018-10-01T01:58:19.643Z,17.6
2018-10-01T01:59:10.041Z,17.6
2018-10-01T01:59:59.829Z,17.6
2018-10-01T02:00:50.156Z,17.6
2018-10-01T02:01:40.563Z,17.6
2018-10-01T02:02:29.962Z,17.6
2018-10-01T02:03:20.386Z,17.6
2018-10-01T02:04:10.610Z,17.6
2018-10-01T02:05:00.379Z,17.6
2018-10-01T02:05:50.477Z,17.6
2018-10-01T02:06:40.297Z,17.5
2018-10-01T02:07:30.899Z,17.5
2018-10-01T02:08:21.014Z,17.5
2018-10-01T02:09:10.696Z,17.6
2018-10-01T02:10:01.034Z,17.6
2018-10-01T02:10:51.113Z,17.6
2018-10-01T02:11:41.219Z,17.5
2018-10-01T02:12:31.555Z,17.5
2018-10-01T02:13:21.389Z,17.5
2018-10-01T02:14:11.368Z,17.6
2018-10-01T02:15:00.861Z,17.5
2018-10-01T02:15:51.461Z,17.6
2018-10-01T02:16:41.284Z,17.6
2018-10-01T02:17:32.205Z,17.6
2018-10-01T02:18:21.111Z,17.6
2018-10-01T02:19:11.516Z,17.5
2018-10-01T02:20:02.151Z,17.5
2018-10-01T02:20:50.749Z,17.6
2018-10-01T02:21:41.623Z,17.5
2018-10-01T02:22:32.343Z,17.5
2018-10-01T02:23:22.335Z,17.5
2018-10-01T02:24:11.558Z,17.5
2018-10-01T02:25:02.133Z,17.5
2018-10-01T02:25:51.135Z,17.5
2018-10-01T02:26:42.544Z,17.6
2018-10-01T02:27:32.330Z,17.6
2018-10-01T02:28:21.358Z,17.6
2018-10-01T02:29:12.468Z,17.6
2018-10-01T02:30:01.676Z,17.6
2018-10-01T02:30:53.115Z,17.6
2018-10-01T02:31:41.955Z,17.6
2018-10-01T02:32:32.433Z,17.6
2018-10-01T02:33:23.550Z,17.6
2018-10-01T02:34:12.533Z,17.6
2018-10-01T02:35:02.061Z,17.6
2018-10-01T02:35:52.998Z,17.5
2018-10-01T02:36:43.573Z,17.5
2018-10-01T02:37:34.983Z,17.5
2018-10-01T02:38:22.854Z,17.5
2018-10-01T02:39:13.246Z,17.5
2018-10-01T02:40:03.305Z,17.5
2018-10-01T02:40:53.047Z,17.5
2018-10-01T02:41:43.106Z,17.4
2018-10-01T02:42:32.624Z,17.5
2018-10-01T02:43:23.521Z,17.6
2018-10-01T02:44:13.669Z,17.6
2018-10-01T02:45:03.442Z,17.5
2018-10-01T02:45:54.320Z,17.5
2018-10-01T02:46:43.479Z,17.5
2018-10-01T02:47:34.459Z,17.6
2018-10-01T02:48:23.623Z,17.5
2018-10-01T02:49:13.784Z,17.5
2018-10-01T02:50:03.458Z,17.5
2018-10-01T02:50:54.604Z,17.5
2018-10-01T02:51:43.579Z,17.5
2018-10-01T02:52:34.515Z,17.5
2018-10-01T02:53:24.341Z,17.5
2018-10-01T02:54:14.099Z,17.5
2018-10-01T02:55:04.419Z,17.5
2018-10-01T02:55:54.691Z,17.5
2018-10-01T02:56:43.850Z,17.4
2018-10-01T02:57:34.207Z,17.4
2018-10-01T02:58:24.589Z,17.4
2018-10-01T02:59:14.951Z,17.4
2018-10-01T03:00:03.848Z,17.4
2018-10-01T03:00:55.063Z,17.4
2018-10-01T03:01:44.632Z,17.4
2018-10-01T03:02:34.931Z,17.4
2018-10-01T03:03:25.243Z,17.4
2018-10-01T03:04:15.019Z,17.4
2018-10-01T03:05:04.837Z,17.4
2018-10-01T03:05:55.503Z,17.4
2018-10-01T03:06:45.205Z,17.4
2018-10-01T03:07:33.846Z,17.4
2018-10-01T03:08:25.402Z,17.4
2018-10-01T03:09:15.175Z,17.4
2018-10-01T03:10:05.448Z,17.4
2018-10-01T03:10:54.640Z,17.4
2018-10-01T03:11:44.712Z,17.4
2018-10-01T03:12:36.302Z,17.4
2018-10-01T03:13:25.428Z,17.4
2018-10-01T03:14:15.525Z,17.4
2018-10-01T03:15:06.958Z,17.4
2018-10-01T03:15:55.850Z,17.4
2018-10-01T03:16:45.953Z,17.5
2018-10-01T03:17:35.422Z,17.4
2018-10-01T03:18:25.842Z,17.4
2018-10-01T03:19:16.739Z,17.4
2018-10-01T03:20:06.211Z,17.4
2018-10-01T03:20:55.959Z,17.4
2018-10-01T03:21:46.269Z,17.4
2018-10-01T03:22:36.362Z,17.4
2018-10-01T03:23:26.728Z,17.4
2018-10-01T03:24:15.959Z,17.4
2018-10-01T03:25:23.075Z,17.4
2018-10-01T03:25:56.652Z,17.4
2018-10-01T03:26:46.207Z,17.4
2018-10-01T03:27:36.431Z,17.4
2018-10-01T03:28:26.864Z,17.4
2018-10-01T03:29:17.391Z,17.4
2018-10-01T03:30:06.378Z,17.4
2018-10-01T03:30:57.605Z,17.4
2018-10-01T03:31:46.566Z,17.4
2018-10-01T03:32:38.022Z,17.4
2018-10-01T03:33:26.866Z,17.4
2018-10-01T03:34:16.927Z,17.4
2018-10-01T03:35:07.319Z,17.4
2018-10-01T03:35:57.027Z,17.4
2018-10-01T03:36:47.446Z,17.4
2018-10-01T03:37:37.186Z,17.4
2018-10-01T03:38:26.649Z,17.4
2018-10-01T03:39:16.709Z,17.4
2018-10-01T03:40:07.978Z,17.4
2018-10-01T03:40:58.215Z,17.4
2018-10-01T03:41:47.292Z,17.4
2018-10-01T03:42:37.179Z,17.4
2018-10-01T03:43:27.350Z,17.4
2018-10-01T03:44:18.512Z,17.4
2018-10-01T03:45:07.537Z,17.4
2018-10-01T03:45:57.520Z,17.4
2018-10-01T03:46:47.981Z,17.4
2018-10-01T03:47:38.196Z,17.4
2018-10-01T03:48:27.916Z,17.4
2018-10-01T03:49:17.981Z,17.4
2018-10-01T03:50:09.514Z,17.4
2018-10-01T03:50:58.919Z,17.4
2018-10-01T03:51:49.009Z,17.4
2018-10-01T03:52:38.289Z,17.4
2018-10-01T03:53:28.584Z,17.4
2018-10-01T03:54:18.638Z,17.4
2018-10-01T03:55:08.996Z,17.4
2018-10-01T03:55:59.028Z,17.4
2018-10-01T03:56:49.401Z,17.4
2018-10-01T03:57:38.881Z,17.4
2018-10-01T03:58:29.207Z,17.4
2018-10-01T03:59:18.743Z,17.4
2018-10-01T04:00:08.535Z,17.4
2018-10-01T04:00:59.333Z,17.4
2018-10-01T04:01:49.498Z,17.4
2018-10-01T04:02:39.220Z,17.4
2018-10-01T04:03:29.149Z,17.4
2018-10-01T04:04:18.922Z,17.4
2018-10-01T04:05:09.185Z,17.4
2018-10-01T04:05:59.229Z,17.3
2018-10-01T04:06:48.537Z,17.4
2018-10-01T04:07:38.834Z,17.3
2018-10-01T04:08:28.907Z,17.3
2018-10-01T04:09:18.740Z,17.3
2018-10-01T04:10:09.862Z,17.3
2018-10-01T04:10:58.510Z,17.3
2018-10-01T04:11:49.777Z,17.3
2018-10-01T04:12:40.097Z,17.3
2018-10-01T04:13:28.427Z,17.3
2018-10-01T04:14:18.746Z,17.4
2018-10-01T04:15:09.704Z,17.4
2018-10-01T04:15:59.177Z,17.4
2018-10-01T04:16:51.832Z,17.4
2018-10-01T04:17:40.424Z,17.4
2018-10-01T04:18:29.601Z,17.4
2018-10-01T04:19:20.243Z,17.4
2018-10-01T04:20:09.761Z,17.3
2018-10-01T04:20:59.819Z,17.3
2018-10-01T04:21:51.054Z,17.3
2018-10-01T04:22:40.719Z,17.3
2018-10-01T04:23:30.562Z,17.3
2018-10-01T04:24:20.896Z,17.3
2018-10-01T04:25:10.425Z,17.3
2018-10-01T04:26:00.266Z,17.3
2018-10-01T04:26:51.057Z,17.3
2018-10-01T04:27:41.114Z,17.3
2018-10-01T04:28:31.481Z,17.4
2018-10-01T04:29:20.718Z,17.3
2018-10-01T04:30:11.060Z,17.3
2018-10-01T04:31:00.284Z,17.3
2018-10-01T04:31:51.457Z,17.3
2018-10-01T04:32:40.978Z,17.3
2018-10-01T04:33:30.710Z,17.3
2018-10-01T04:34:20.531Z,17.3
2018-10-01T04:35:10.268Z,17.3
2018-10-01T04:36:00.940Z,17.3
2018-10-01T04:36:51.240Z,17.3
2018-10-01T04:37:41.331Z,17.3
2018-10-01T04:38:31.378Z,17.3
2018-10-01T04:39:21.750Z,17.3
2018-10-01T04:40:12.278Z,17.3
2018-10-01T04:41:01.834Z,17.3
2018-10-01T04:41:51.308Z,17.3
2018-10-01T04:42:41.395Z,17.3
2018-10-01T04:43:31.767Z,17.3
2018-10-01T04:44:21.230Z,17.3
2018-10-01T04:45:12.110Z,17.3
2018-10-01T04:46:01.408Z,17.3
2018-10-01T04:46:52.993Z,17.3
2018-10-01T04:47:41.975Z,17.3
2018-10-01T04:48:31.817Z,17.4
2018-10-01T04:49:21.562Z,17.3
2018-10-01T04:50:12.245Z,17.3
2018-10-01T04:51:01.635Z,17.3
2018-10-01T04:51:52.597Z,17.3
2018-10-01T04:52:41.684Z,17.3
2018-10-01T04:53:31.894Z,17.3
2018-10-01T04:54:22.804Z,17.3
2018-10-01T04:55:12.338Z,17.3
2018-10-01T04:56:02.366Z,17.3
2018-10-01T04:56:52.147Z,17.3
2018-10-01T04:57:42.999Z,17.4
2018-10-01T04:58:37.831Z,17.3
2018-10-01T04:59:22.617Z,17.3
2018-10-01T05:00:12.957Z,17.3
2018-10-01T05:01:03.521Z,17.3
2018-10-01T05:01:53.095Z,17.3
2018-10-01T05:02:43.225Z,17.3
2018-10-01T05:03:33.192Z,17.3
2018-10-01T05:04:23.244Z,17.4
2018-10-01T05:05:12.481Z,17.4
2018-10-01T05:06:04.128Z,17.4
2018-10-01T05:06:52.849Z,17.3
2018-10-01T05:07:43.736Z,17.3
2018-10-01T05:24:36.295Z,17.1
2018-10-01T05:25:26.579Z,17.1
2018-10-01T05:26:16.632Z,17.1
2018-10-01T05:27:07.860Z,17.1
2018-10-01T05:27:57.432Z,17.1
2018-10-01T05:28:46.861Z,17.1
2018-10-01T05:29:37.491Z,17.1
2018-10-01T05:30:27.504Z,17.1
2018-10-01T05:31:17.474Z,17.1
2018-10-01T05:32:06.549Z,17.1
2018-10-01T05:32:57.371Z,17.2
2018-10-01T05:33:47.728Z,17.2
2018-10-01T05:34:37.489Z,17.2
2018-10-01T05:35:27.861Z,17.2
2018-10-01T05:36:17.066Z,17.3
2018-10-01T05:37:07.410Z,17.3
2018-10-01T05:38:00.447Z,17.3
2018-10-01T05:38:48.886Z,17.3
2018-10-01T05:39:38.447Z,17.3
2018-10-01T05:40:28.235Z,17.3
2018-10-01T05:41:18.834Z,17.3
2018-10-01T05:42:08.568Z,17.3
2018-10-01T05:42:58.391Z,17.3
2018-10-01T05:43:48.224Z,17.3
2018-10-01T05:44:37.998Z,17.3
2018-10-01T05:45:28.585Z,17.3
2018-10-01T05:46:18.667Z,17.3
2018-10-01T05:47:08.223Z,17.3
2018-10-01T05:47:59.225Z,17.3
2018-10-01T05:48:47.980Z,17.3
2018-10-01T05:49:38.104Z,17.3
2018-10-01T05:50:28.970Z,17.3
2018-10-01T05:51:18.807Z,17.3
2018-10-01T05:52:08.211Z,17.3
2018-10-01T05:52:59.662Z,17.3
2018-10-01T05:53:48.822Z,17.3
2018-10-01T05:54:39.217Z,17.3
2018-10-01T05:55:28.665Z,17.3
2018-10-01T05:56:18.838Z,17.4
2018-10-01T05:57:09.518Z,17.4
2018-10-01T05:57:59.586Z,17.3
2018-10-01T05:58:49.227Z,17.3
2018-10-01T05:59:39.892Z,17.3
2018-10-01T06:00:29.715Z,17.3
2018-10-01T06:01:19.742Z,17.3
2018-10-01T06:02:09.177Z,17.3
2018-10-01T06:02:59.767Z,17.3
2018-10-01T06:03:49.679Z,17.3
2018-10-01T06:04:40.472Z,17.3
2018-10-01T06:05:29.239Z,17.3
2018-10-01T06:06:19.524Z,17.3
2018-10-01T06:07:09.652Z,17.3
2018-10-01T06:07:59.407Z,17.3
2018-10-01T06:08:50.182Z,17.3
2018-10-01T06:09:39.815Z,17.3
2018-10-01T06:10:30.416Z,17.3
2018-10-01T06:11:20.148Z,17.3
2018-10-01T06:12:10.664Z,17.3
2018-10-01T06:13:01.143Z,17.3
2018-10-01T06:13:50.092Z,17.3
2018-10-01T06:14:39.576Z,17.3
2018-10-01T06:15:31.234Z,17.3
2018-10-01T06:16:20.553Z,17.3
2018-10-01T06:17:10.516Z,17.3
2018-10-01T06:18:00.616Z,17.3
2018-10-01T06:18:50.681Z,17.3
2018-10-01T06:19:40.724Z,17.3
2018-10-01T06:20:31.343Z,17.3
2018-10-01T06:21:20.843Z,17.3
2018-10-01T06:22:11.703Z,17.3
2018-10-01T06:23:01.536Z,17.3
2018-10-01T06:23:51.547Z,17.4
2018-10-01T06:24:40.721Z,17.4
2018-10-01T06:25:32.049Z,17.4
2018-10-01T06:26:22.075Z,17.3
2018-10-01T06:27:11.860Z,17.3
2018-10-01T06:28:01.868Z,17.4
2018-10-01T06:28:51.933Z,17.4
2018-10-01T06:29:41.465Z,17.3
2018-10-01T06:30:31.255Z,17.3
2018-10-01T06:31:22.955Z,17.3
2018-10-01T06:32:11.873Z,17.3
2018-10-01T06:33:02.563Z,17.4
2018-10-01T06:33:50.418Z,17.4
2018-10-01T06:34:41.383Z,17.4
2018-10-01T06:35:30.755Z,17.4
2018-10-01T06:36:22.588Z,17.4
2018-10-01T06:37:11.865Z,17.4
2018-10-01T06:38:01.016Z,17.4
2018-10-01T06:38:51.052Z,17.4
2018-10-01T06:39:41.324Z,17.4
2018-10-01T06:40:31.551Z,17.4
2018-10-01T06:41:22.291Z,17.5
2018-10-01T06:42:12.433Z,17.5
2018-10-01T06:43:01.502Z,17.4
2018-10-01T06:43:50.807Z,17.4
2018-10-01T06:44:42.171Z,17.4
2018-10-01T06:45:31.657Z,17.4
2018-10-01T06:46:21.084Z,17.4
2018-10-01T06:47:10.852Z,17.5
2018-10-01T06:48:01.814Z,17.5
2018-10-01T06:48:51.673Z,17.4
2018-10-01T06:49:43.572Z,17.4
2018-10-01T06:50:32.511Z,17.4
2018-10-01T06:51:22.661Z,17.4
2018-10-01T06:52:12.040Z,17.4
2018-10-01T06:53:03.308Z,17.4
2018-10-01T06:53:52.570Z,17.4
2018-10-01T06:54:42.717Z,17.4
2018-10-01T06:55:32.592Z,17.4
2018-10-01T06:56:22.485Z,17.4
2018-10-01T06:57:13.492Z,17.4
2018-10-01T06:58:02.385Z,17.5
2018-10-01T06:58:52.922Z,17.5
2018-10-01T06:59:43.439Z,17.4
2018-10-01T07:00:32.526Z,17.4
2018-10-01T07:01:24.839Z,17.5
2018-10-01T07:02:14.937Z,17.5
2018-10-01T07:03:03.427Z,17.5
2018-10-01T07:03:54.817Z,17.5
2018-10-01T07:04:44.324Z,17.6
2018-10-01T07:05:36.097Z,17.6
2018-10-01T07:06:25.704Z,17.6
2018-10-01T07:07:15.474Z,17.5
2018-10-01T07:08:04.443Z,17.5
2018-10-01T07:08:55.016Z,17.5
2018-10-01T07:09:44.764Z,17.5
2018-10-01T07:10:35.348Z,17.6
2018-10-01T07:11:27.750Z,17.6
2018-10-01T07:12:14.594Z,17.6
2018-10-01T07:13:05.401Z,17.6
2018-10-01T07:13:55.893Z,17.6
2018-10-01T07:14:45.887Z,17.6
2018-10-01T07:15:35.113Z,17.6
2018-10-01T07:16:26.362Z,17.6
2018-10-01T07:17:19.302Z,17.6
2018-10-01T07:18:05.008Z,17.6
2018-10-01T07:18:55.727Z,17.6
2018-10-01T07:19:45.149Z,17.6
2018-10-01T07:20:35.443Z,17.6
2018-10-01T07:21:25.838Z,17.6
2018-10-01T07:22:15.913Z,17.6
2018-10-01T07:23:09.173Z,17.6
2018-10-01T07:23:56.018Z,17.6
2018-10-01T07:24:45.473Z,17.6
2018-10-01T07:25:35.752Z,17.6
2018-10-01T07:26:26.153Z,17.6
2018-10-01T07:27:16.185Z,17.6
2018-10-01T07:28:05.675Z,17.6
2018-10-01T07:28:56.068Z,17.6
2018-10-01T07:29:46.401Z,17.6
2018-10-01T07:30:35.918Z,17.6
2018-10-01T07:31:26.482Z,17.6
2018-10-01T07:32:16.059Z,17.6
2018-10-01T07:33:07.038Z,17.6
2018-10-01T07:33:56.697Z,17.6
2018-10-01T07:34:45.415Z,17.6
2018-10-01T07:35:36.554Z,17.6
2018-10-01T07:36:26.917Z,17.6
2018-10-01T07:37:16.447Z,17.5
2018-10-01T07:38:07.307Z,17.5
2018-10-01T07:38:57.693Z,17.5
2018-10-01T07:39:46.057Z,17.5
2018-10-01T07:40:35.455Z,17.5
2018-10-01T07:41:27.195Z,17.5
2018-10-01T07:42:17.391Z,17.5
2018-10-01T07:43:06.921Z,17.4
2018-10-01T07:43:57.196Z,17.4
2018-10-01T07:44:47.910Z,17.4
2018-10-01T07:45:36.562Z,17.4
2018-10-01T07:46:28.225Z,17.4
2018-10-01T07:47:17.595Z,17.4
2018-10-01T07:48:07.584Z,17.4
2018-10-01T07:48:58.515Z,17.4
2018-10-01T07:49:47.504Z,17.5
2018-10-01T07:50:39.572Z,17.4
2018-10-01T07:51:28.307Z,17.4
2018-10-01T07:52:17.363Z,17.4
2018-10-01T07:53:07.070Z,17.4
2018-10-01T07:53:58.219Z,17.4
2018-10-01T07:54:48.279Z,17.4
2018-10-01T07:55:38.034Z,17.4
2018-10-01T07:56:28.284Z,17.4
2018-10-01T07:57:18.606Z,17.4
2018-10-01T07:58:08.113Z,17.4
2018-10-01T07:58:58.573Z,17.4
2018-10-01T07:59:51.186Z,17.4
2018-10-01T08:00:38.314Z,17.5
2018-10-01T08:01:27.547Z,17.4
2018-10-01T08:02:19.433Z,17.4
2018-10-01T08:03:08.536Z,17.4
2018-10-01T08:03:58.655Z,17.4
2018-10-01T08:04:47.588Z,17.5
2018-10-01T08:06:16.270Z,17.5
2018-10-01T08:07:04.691Z,17.5
2018-10-01T08:07:55.961Z,17.4
2018-10-01T08:08:47.612Z,17.4
2018-10-01T08:09:37.048Z,17.4
2018-10-01T08:10:26.806Z,17.4
2018-10-01T08:11:15.788Z,17.4
2018-10-01T08:12:06.210Z,17.4
2018-10-01T08:12:57.015Z,17.4
2018-10-01T08:13:47.008Z,17.4
2018-10-01T08:14:38.075Z,17.4
2018-10-01T08:15:27.740Z,17.4
2018-10-01T08:16:17.516Z,17.4
2018-10-01T08:17:07.048Z,17.4
2018-10-01T08:17:56.263Z,17.5
2018-10-01T08:18:47.978Z,17.5
2018-10-01T08:19:37.810Z,17.5
2018-10-01T08:20:28.249Z,17.5
2018-10-01T08:21:20.255Z,17.5
2018-10-01T08:22:07.662Z,17.5
2018-10-01T08:22:58.270Z,17.5
2018-10-01T08:23:49.370Z,17.5
2018-10-01T08:24:37.860Z,17.5
2018-10-01T08:25:28.457Z,17.5
2018-10-01T08:26:19.306Z,17.5
2018-10-01T08:27:08.562Z,17.5
2018-10-01T08:27:58.383Z,17.5
2018-10-01T08:28:47.850Z,17.5
2018-10-01T08:29:38.924Z,17.5
2018-10-01T08:30:27.721Z,17.5
2018-10-01T08:31:18.911Z,17.5
2018-10-01T08:32:10.081Z,17.6
2018-10-01T08:32:58.747Z,17.6
2018-10-01T08:33:48.812Z,17.6
2018-10-01T08:34:38.307Z,17.6
2018-10-01T08:35:29.129Z,17.6
2018-10-01T08:36:18.417Z,17.6
2018-10-01T08:37:09.056Z,17.6
2018-10-01T08:37:59.278Z,17.6
2018-10-01T08:38:50.699Z,17.6
2018-10-01T08:39:39.509Z,17.6
2018-10-01T08:40:28.712Z,17.7
2018-10-01T08:41:19.332Z,17.7
2018-10-01T08:42:09.134Z,17.8
2018-10-01T08:42:59.539Z,17.8
2018-10-01T08:43:49.518Z,17.8
2018-10-01T08:44:41.192Z,17.9
2018-10-01T08:45:28.846Z,17.9
2018-10-01T08:46:19.131Z,17.9
2018-10-01T08:47:10.868Z,17.9
2018-10-01T08:47:59.301Z,17.9
2018-10-01T08:48:49.941Z,17.9
2018-10-01T08:49:39.724Z,17.9
2018-10-01T08:50:31.209Z,17.9
2018-10-01T08:51:19.561Z,17.9
2018-10-01T08:52:10.820Z,18
2018-10-01T09:08:20.088Z,18.2
2018-10-01T09:09:08.221Z,18.2
2018-10-01T09:09:58.515Z,18.2
2018-10-01T09:10:48.338Z,18.2
2018-10-01T09:11:39.576Z,18.2
2018-10-01T09:12:28.455Z,18.3
2018-10-01T09:13:18.800Z,18.3
2018-10-01T09:14:10.758Z,18.3
2018-10-01T09:14:59.822Z,18.3
2018-10-01T09:15:49.438Z,18.3
2018-10-01T09:16:39.516Z,18.3
2018-10-01T09:17:30.523Z,18.3
2018-10-01T09:18:19.958Z,18.3
2018-10-01T09:19:08.335Z,18.3
2018-10-01T09:19:59.863Z,18.3
2018-10-01T09:20:50.450Z,18.3
2018-10-01T09:21:40.816Z,18.4
2018-10-01T09:22:29.742Z,18.4
2018-10-01T09:23:20.648Z,18.4
2018-10-01T09:24:08.977Z,18.4
2018-10-01T09:24:59.907Z,18.4
2018-10-01T09:25:49.311Z,18.4
2018-10-01T09:26:41.427Z,18.4
2018-10-01T09:27:28.379Z,18.4
2018-10-01T09:28:19.534Z,18.4
2018-10-01T09:29:10.786Z,18.4
2018-10-01T09:29:59.746Z,18.4
2018-10-01T09:30:50.313Z,18.4
2018-10-01T09:31:38.711Z,18.4
2018-10-01T09:32:32.215Z,18.4
2018-10-01T09:33:19.890Z,18.4
2018-10-01T09:34:10.616Z,18.5
2018-10-01T09:35:00.707Z,18.4
2018-10-01T09:35:50.742Z,18.5
2018-10-01T09:36:39.926Z,18.5
2018-10-01T09:37:29.966Z,18.5
2018-10-01T09:38:21.947Z,18.5
2018-10-01T09:39:10.393Z,18.5
2018-10-01T09:40:00.224Z,18.5
2018-10-01T09:40:49.966Z,18.5
2018-10-01T09:41:40.871Z,18.5
2018-10-01T09:42:30.906Z,18.5
2018-10-01T09:43:20.672Z,18.5
2018-10-01T09:44:12.053Z,18.5
2018-10-01T09:45:01.608Z,18.5
2018-10-01T09:45:51.147Z,18.5
2018-10-01T09:46:41.999Z,18.5
2018-10-01T09:47:31.853Z,18.5
2018-10-01T09:48:21.633Z,18.6
2018-10-01T09:49:11.675Z,18.6
2018-10-01T09:50:02.541Z,18.5
2018-10-01T09:50:50.483Z,18.5
2018-10-01T09:51:40.998Z,18.6
2018-10-01T09:52:32.638Z,18.6
2018-10-01T09:53:21.405Z,18.6
2018-10-01T09:54:11.817Z,18.6
2018-10-01T09:55:01.926Z,18.6
2018-10-01T09:55:51.350Z,18.6
2018-10-01T09:56:43.606Z,18.6
2018-10-01T09:57:31.750Z,18.6
2018-10-01T09:58:24.573Z,18.6
2018-10-01T09:59:12.386Z,18.6
2018-10-01T10:00:02.162Z,18.6
2018-10-01T10:00:52.305Z,18.6
2018-10-01T10:01:42.464Z,18.6
2018-10-01T10:02:32.275Z,18.6
2018-10-01T10:03:22.190Z,18.6
2018-10-01T10:04:14.047Z,18.6
2018-10-01T10:05:03.096Z,18.6
2018-10-01T10:05:52.654Z,18.6
2018-10-01T10:06:42.711Z,18.6
2018-10-01T10:07:33.324Z,18.6
2018-10-01T10:08:23.827Z,18.6
2018-10-01T10:09:12.066Z,18.6
2018-10-01T10:10:03.636Z,18.6
2018-10-01T10:10:52.934Z,18.6
2018-10-01T10:11:43.441Z,18.6
2018-10-01T10:15:03.861Z,18.6
2018-10-01T10:16:47.321Z,18.6
2018-10-01T10:18:23.872Z,18.6
2018-10-01T10:20:04.430Z,18.6
2018-10-01T10:21:43.483Z,18.6
2018-10-01T10:28:24.875Z,18.6
2018-10-01T10:36:44.615Z,18.8
2018-10-01T10:40:05.282Z,18.8
2018-10-01T10:40:56.047Z,18.8
2018-10-01T10:41:46.275Z,18.8
2018-10-01T10:42:35.596Z,18.8
2018-10-01T10:43:25.145Z,18.8
2018-10-01T10:44:17.115Z,18.8
2018-10-01T10:45:05.327Z,18.8
2018-10-01T10:45:54.734Z,18.8
2018-10-01T10:46:45.112Z,18.8
2018-10-01T10:47:36.027Z,18.8
2018-10-01T10:48:26.021Z,18.8
2018-10-01T10:49:16.067Z,18.8
2018-10-01T10:50:06.075Z,18.8
2018-10-01T10:50:55.532Z,18.8
2018-10-01T10:51:45.757Z,18.8
2018-10-01T10:52:36.044Z,18.8
2018-10-01T10:53:25.561Z,18.8
2018-10-01T10:54:16.197Z,18.8
2018-10-01T10:55:05.474Z,18.8
2018-10-01T10:55:55.049Z,18.8
2018-10-01T10:56:46.981Z,18.8
2018-10-01T10:57:35.304Z,18.8
2018-10-01T10:58:26.743Z,18.8
2018-10-01T10:59:15.964Z,18.8
2018-10-01T11:00:06.376Z,18.8
2018-10-01T11:00:56.964Z,18.8
2018-10-01T11:01:46.503Z,18.8
2018-10-01T11:02:38.902Z,18.8
2018-10-01T11:03:26.016Z,18.8
2018-10-01T11:04:17.156Z,18.9
2018-10-01T11:05:06.295Z,18.9
2018-10-01T11:05:56.075Z,18.8
2018-10-01T11:06:45.276Z,18.9
2018-10-01T11:07:35.678Z,18.9
2018-10-01T11:08:27.613Z,18.9
2018-10-01T11:09:17.889Z,18.9
2018-10-01T11:10:07.100Z,18.9
2018-10-01T11:10:56.436Z,18.9
2018-10-01T11:11:47.078Z,18.9
2018-10-01T11:12:38.104Z,18.9
2018-10-01T11:13:28.398Z,18.9
2018-10-01T11:14:19.669Z,18.9
2018-10-01T11:15:12.844Z,18.9
2018-10-01T11:15:57.625Z,18.9
2018-10-01T11:16:48.053Z,18.9
2018-10-01T11:17:38.153Z,18.9
2018-10-01T11:18:27.208Z,18.9
2018-10-01T11:19:22.636Z,18.9
2018-10-01T11:20:10.291Z,18.9
2018-10-01T11:21:01.517Z,18.9
2018-10-01T11:21:49.703Z,18.9
2018-10-01T11:22:39.259Z,18.9
2018-10-01T11:23:28.375Z,18.9
2018-10-01T11:24:17.800Z,18.9
2018-10-01T11:25:07.753Z,18.9
2018-10-01T11:25:57.688Z,18.9
2018-10-01T11:26:49.077Z,18.9
2018-10-01T11:27:39.178Z,19
2018-10-01T11:28:29.152Z,18.9
2018-10-01T11:29:19.305Z,19
2018-10-01T11:30:09.510Z,19
2018-10-01T11:30:58.897Z,19
2018-10-01T11:31:50.795Z,19
2018-10-01T11:32:39.036Z,19
2018-10-01T11:33:29.621Z,19
2018-10-01T11:34:19.194Z,19
2018-10-01T11:35:13.307Z,19
2018-10-01T11:35:59.873Z,19
2018-10-01T11:36:49.327Z,19
2018-10-01T11:37:38.544Z,19.1
2018-10-01T11:38:29.515Z,19
2018-10-01T11:39:22.160Z,19
2018-10-01T11:40:09.610Z,19
2018-10-01T11:40:59.381Z,19
2018-10-01T11:41:49.767Z,19
2018-10-01T11:42:39.527Z,19.1
2018-10-01T11:43:29.806Z,19.1
2018-10-01T11:44:20.141Z,19
2018-10-01T11:45:10.959Z,19
2018-10-01T11:46:00.191Z,19
2018-10-01T11:46:50.815Z,19
2018-10-01T11:47:39.096Z,19.1
2018-10-01T11:48:29.706Z,19.1
2018-10-01T11:49:19.706Z,19.1
2018-10-01T11:50:09.191Z,19.1
2018-10-01T11:51:01.479Z,19
2018-10-01T11:51:50.216Z,19
2018-10-01T11:52:40.818Z,19.1
2018-10-01T11:53:30.520Z,19.1
2018-10-01T11:54:21.673Z,19.1
2018-10-01T11:55:10.495Z,19.1
2018-10-01T11:56:00.732Z,19.1
2018-10-01T11:56:51.328Z,19.1
2018-10-01T11:57:42.823Z,19.1
2018-10-01T11:58:31.188Z,19.1
2018-10-01T11:59:20.951Z,19.1
2018-10-01T12:00:11.113Z,19.1
2018-10-01T12:01:00.815Z,19.1
2018-10-01T12:01:51.481Z,19.1
2018-10-01T12:02:40.980Z,19.1
2018-10-01T12:03:32.195Z,19.1
2018-10-01T12:04:21.562Z,19.1
2018-10-01T12:05:11.727Z,19.1
2018-10-01T12:06:01.460Z,19.1
2018-10-01T12:06:50.670Z,19.1
2018-10-01T12:07:42.078Z,19.1
2018-10-01T12:08:31.707Z,19.1
2018-10-01T12:09:24.131Z,19.1
2018-10-01T12:10:14.307Z,19.1
2018-10-01T12:11:02.062Z,19.2
2018-10-01T12:11:52.279Z,19.1
2018-10-01T12:12:42.221Z,19.1
2018-10-01T12:13:31.502Z,19.1
2018-10-01T12:14:22.565Z,19.1
2018-10-01T12:15:14.161Z,19.2
2018-10-01T12:16:07.560Z,19.2
2018-10-01T12:16:52.294Z,19.2
2018-10-01T12:17:42.085Z,19.2
2018-10-01T12:18:32.671Z,19.2
2018-10-01T12:19:22.690Z,19.2